Shorkot Weather



Shorkot's Current Weather

Temprature 26.2o clear sky

clear sky

Rain: 0 %

Min Temprature26.2o
Max Temprature26.2o
Humidity60
Wind Speed2.42 m/h
Sun Rise06:06:52
Sun Set18:09:00
Current Time: 26-Sep-2022 08:16:19
Lat/Lon: 31.9099, 70.8774




Shorkot's Geo Location



Shorkot's Weather Forecast

Time Overall Temp Min Temp Max Temp Humidity Wind Speed Rain
26-Sep-2022 (Mon)
11:00:00 clear sky 27.720 27.720 30.770 55 1.7 m/h 0 %
14:00:00 clear sky 31.560 31.560 34.240 43 1.59 m/h 0 %
17:00:00 clear sky 34.740 34.740 34.740 32 1.38 m/h 0 %
20:00:00 clear sky 32.480 32.480 32.480 37 2.83 m/h 0 %
23:00:00 clear sky 31.030 31.030 31.030 41 2.69 m/h 0 %
27-Sep-2022 (Tue)
02:00:00 clear sky 29.890 29.890 29.890 44 1.93 m/h 0 %
05:00:00 clear sky 28.860 28.860 28.860 47 1.68 m/h 0 %
08:00:00 clear sky 30.680 30.680 30.680 43 1.97 m/h 0 %
11:00:00 clear sky 34.370 34.370 34.370 35 2.05 m/h 0 %
14:00:00 clear sky 36.860 36.860 36.860 28 2.41 m/h 0 %
17:00:00 clear sky 36.960 36.960 36.960 26 3.5 m/h 0 %
20:00:00 clear sky 33.940 33.940 33.940 31 3.57 m/h 0 %
23:00:00 clear sky 32.490 32.490 32.490 30 3.57 m/h 0 %
28-Sep-2022 (Wed)
02:00:00 clear sky 30.170 30.170 30.170 42 3.72 m/h 0 %
05:00:00 clear sky 28.560 28.560 28.560 49 3.69 m/h 0 %
08:00:00 clear sky 29.980 29.980 29.980 46 3.81 m/h 0 %
11:00:00 clear sky 35.130 35.130 35.130 30 3.6 m/h 0 %
14:00:00 clear sky 37.920 37.920 37.920 22 2.89 m/h 0 %
17:00:00 clear sky 37.830 37.830 37.830 20 3.68 m/h 0 %
20:00:00 clear sky 34.110 34.110 34.110 25 3.7 m/h 0 %
23:00:00 clear sky 31.710 31.710 31.710 30 3.31 m/h 0 %
29-Sep-2022 (Thu)
02:00:00 clear sky 29.690 29.690 29.690 36 3.53 m/h 0 %
05:00:00 clear sky 28.110 28.110 28.110 43 2.98 m/h 0 %
08:00:00 clear sky 30.100 30.100 30.100 41 3.93 m/h 0 %
11:00:00 clear sky 35.400 35.400 35.400 25 3.18 m/h 0 %
14:00:00 clear sky 38.260 38.260 38.260 18 2.58 m/h 0 %
17:00:00 clear sky 38.320 38.320 38.320 17 2.8 m/h 0 %
20:00:00 clear sky 34.050 34.050 34.050 23 3.13 m/h 0 %
23:00:00 clear sky 31.980 31.980 31.980 26 3.92 m/h 0 %
30-Sep-2022 (Fri)
02:00:00 clear sky 29.660 29.660 29.660 29 2.23 m/h 0 %
05:00:00 clear sky 28.380 28.380 28.380 31 2.99 m/h 0 %
08:00:00 clear sky 30.340 30.340 30.340 28 2.62 m/h 0 %
11:00:00 clear sky 35.530 35.530 35.530 21 1.76 m/h 0 %
14:00:00 clear sky 38.580 38.580 38.580 17 1.76 m/h 0 %
17:00:00 clear sky 38.680 38.680 38.680 15 2.71 m/h 0 %
20:00:00 clear sky 34.140 34.140 34.140 19 3.58 m/h 0 %
23:00:00 clear sky 31.500 31.500 31.500 29 3.07 m/h 0 %
01-Oct-2022 (Sat)
02:00:00 clear sky 29.430 29.430 29.430 34 2.19 m/h 0 %
05:00:00 clear sky 27.920 27.920 27.920 37 2.72 m/h 0 %
08:00:00 clear sky 30.300 30.300 30.300 33 3.33 m/h 0 %

Famous Cities (61)